Time;durP1;ratioP1;P1;durP2;ratioP2;P2;SDS_P1;SDS_P2;PMS_P1;PMS_P2;Temp;Humidity;BMP_temperature;BMP_pressure;BME280_temperature;BME280_humidity;BME280_pressure;Samples;Min_cycle;Max_cycle;Signal;HPM_P1;HPM_P2
2021/09/27 00:05:37;;;;;;;9.98;7.90;;;16.90;83.20;;;15.80;88.94;96287.22;4798124;29;20530;-63
2021/09/27 00:09:02;;;;;;;;;;;;;;;;;;;;;
2021/09/27 00:12:21;;;;;;;9.52;7.93;;;17.00;83.50;;;15.81;89.46;96283.56;4769305;29;20055;-63
2021/09/27 00:15:13;;;;;;;10.45;8.82;;;17.00;83.30;;;15.81;89.34;96280.09;4809766;29;20077;-63
2021/09/27 00:18:36;;;;;;;9.10;7.57;;;17.00;83.20;;;15.82;89.75;96279.06;4855240;29;20053;-63
2021/09/27 00:22:55;;;;;;;;;;;;;;;;;;;;;
2021/09/27 00:26:45;;;;;;;8.85;7.80;;;17.00;83.30;;;15.84;90.24;96275.19;4772669;29;21077;-63
2021/09/27 00:30:18;;;;;;;;;;;;;;;;;;;;;
2021/09/27 00:33:27;;;;;;;11.13;8.75;;;17.00;83.60;;;15.84;91.09;96283.16;4735420;29;20067;-64
2021/09/27 00:43:49;;;;;;;13.32;9.52;;;17.00;84.00;;;15.84;89.70;96269.03;4680228;30;20518;-63
2021/09/27 00:47:06;;;;;;;;;;;;;;;;;;;;;
2021/09/27 01:05:43;;;;;;;11.57;10.05;;;17.20;84.60;;;15.93;92.69;96268.56;4782290;29;20099;-63
2021/09/27 01:09:43;;;;;;;13.68;11.15;;;17.10;84.80;;;15.91;92.61;96270.63;4745363;30;20035;-64
2021/09/27 01:24:16;;;;;;;12.63;10.98;;;17.10;85.10;;;15.87;93.74;96271.28;4759763;29;20070;-63
2021/09/27 01:28:01;;;;;;;16.40;12.10;;;17.00;85.70;;;15.85;93.89;96268.03;4790131;29;20051;-63
2021/09/27 01:31:29;;;;;;;14.20;12.57;;;17.00;85.90;;;15.81;94.36;96267.63;4775999;29;20040;-63
2021/09/27 01:34:59;;;;;;;17.75;12.82;;;16.90;86.30;;;15.73;95.47;96262.63;4802390;29;20065;-63
2021/09/27 01:38:00;;;;;;;17.52;14.02;;;16.80;86.90;;;15.71;95.30;96253.25;4768923;29;20075;-63
2021/09/27 01:45:10;;;;;;;19.60;14.27;;;16.90;86.90;;;15.68;95.63;96254.50;4901506;29;20055;-65
2021/09/27 01:52:21;;;;;;;20.52;15.77;;;16.90;87.10;;;15.70;96.02;96247.13;4859312;29;20075;-65
2021/09/27 02:03:35;;;;;;;19.08;15.52;;;16.90;86.90;;;15.76;96.71;96235.66;4885600;29;20036;-64
2021/09/27 02:11:18;;;;;;;19.70;15.70;;;17.10;86.50;;;15.80;96.50;96252.75;4848211;29;20132;-63
2021/09/27 02:45:41;;;;;;;22.05;16.02;;;17.10;86.30;;;15.76;96.31;96246.25;4728546;30;20102;-63
2021/09/27 02:49:24;;;;;;;19.63;15.35;;;17.10;86.30;;;15.75;96.94;96249.94;4763063;29;20635;-63
2021/09/27 02:52:05;;;;;;;20.15;15.43;;;17.00;86.50;;;15.71;95.56;96248.75;4753185;29;20065;-63
2021/09/27 02:55:32;;;;;;;22.77;15.38;;;17.00;86.50;;;15.76;96.78;96245.44;4775970;29;20623;-64
2021/09/27 03:02:28;;;;;;;20.08;14.65;;;17.10;86.20;;;15.79;96.22;96243.19;4804055;29;20066;-63
2021/09/27 03:05:42;;;;;;;;;;;17.10;85.80;;;15.75;96.02;96247.28;4860386;29;20045;-64
2021/09/27 03:08:55;;;;;;;36.90;29.08;;;17.10;85.80;;;15.80;96.00;96242.16;4851049;29;19927;-64
2021/09/27 03:12:29;;;;;;;21.92;17.20;;;17.10;85.90;;;15.82;95.81;96244.56;4863010;29;20056;-62
2021/09/27 03:16:06;;;;;;;;;;;;;;;;;;;;;
2021/09/27 03:26:13;;;;;;;19.05;14.40;;;17.10;85.80;;;15.78;95.12;96233.59;5017317;28;20056;-67
2021/09/27 03:29:45;;;;;;;18.17;14.13;;;17.10;85.70;;;15.76;96.08;96235.66;4976216;28;20033;-68
2021/09/27 03:32:40;;;;;;;21.58;17.50;;;17.00;85.70;;;15.74;95.49;96235.06;5022831;28;20037;-67
2021/09/27 03:35:36;;;;;;;18.48;16.10;;;17.00;85.80;;;15.73;95.95;96236.09;5014331;28;20054;-68
2021/09/27 03:38:24;;;;;;;19.30;16.17;;;17.10;85.70;;;15.74;95.27;96239.56;5062181;28;20082;-68
2021/09/27 03:41:05;;;;;;;21.85;17.02;;;17.10;85.70;;;15.71;94.33;96234.69;5040997;28;20038;-67
2021/09/27 03:44:08;;;;;;;19.33;15.07;;;17.00;85.80;;;15.67;96.24;96236.16;5029473;28;20064;-68
2021/09/27 03:46:54;;;;;;;20.83;14.90;;;16.90;86.00;;;15.62;96.34;96234.16;5026915;28;20041;-67
2021/09/27 03:49:31;;;;;;;18.42;15.07;;;16.80;86.20;;;15.61;95.52;96238.66;5023429;28;20032;-65
2021/09/27 03:52:06;;;;;;;17.75;14.52;;;16.90;86.20;;;15.64;95.97;96236.59;5038511;28;20047;-66
2021/09/27 03:54:58;;;;;;;19.45;15.07;;;17.00;85.90;;;15.65;96.87;96233.72;5012609;28;20033;-64
2021/09/27 03:57:32;;;;;;;19.35;14.75;;;17.00;85.90;;;15.63;95.89;96241.09;5000410;28;20034;-65
2021/09/27 04:00:03;;;;;;;19.42;14.50;;;17.00;85.70;;;15.62;95.41;96236.81;5014067;28;20038;-65
2021/09/27 04:02:46;;;;;;;21.58;14.88;;;17.00;85.50;;;15.63;96.16;96235.78;4979299;28;20576;-65
2021/09/27 04:05:47;;;;;;;17.75;13.85;;;17.00;85.50;;;15.61;95.83;96235.16;5045759;28;20480;-65
2021/09/27 04:08:28;;;;;;;17.27;14.25;;;17.00;85.30;;;15.60;94.90;96236.19;5052359;28;20113;-66
2021/09/27 04:11:06;;;;;;;17.88;14.45;;;16.90;85.10;;;15.57;94.16;96241.91;5036859;28;20136;-66
2021/09/27 04:13:55;;;;;;;17.15;13.68;;;16.90;85.10;;;15.56;95.25;96237.63;5044211;28;20128;-65
2021/09/27 04:17:09;;;;;;;18.23;14.38;;;16.90;85.00;;;15.52;94.76;96244.41;4999928;28;20087;-66
2021/09/27 04:19:47;;;;;;;19.58;14.10;;;16.80;85.10;;;15.50;95.09;96241.16;5035004;28;20125;-66
2021/09/27 04:22:25;;;;;;;17.98;14.40;;;16.80;85.10;;;15.48;94.90;96237.91;5049885;28;20029;-66
2021/09/27 04:25:12;;;;;;;21.42;17.48;;;16.80;85.10;;;15.48;94.07;96237.91;5018593;28;20155;-66
2021/09/27 04:27:59;;;;;;;32.78;27.95;;;16.80;85.10;;;15.47;95.77;96239.75;5021620;28;20112;-66
2021/09/27 04:30:51;;;;;;;25.00;20.98;;;16.80;85.20;;;15.45;95.58;96238.34;5011852;28;20111;-66
2021/09/27 04:33:54;;;;;;;19.25;15.57;;;16.70;85.10;;;15.42;95.63;96238.78;5005039;28;20041;-64
2021/09/27 04:36:23;;;;;;;21.92;14.93;;;16.60;85.00;;;15.38;94.96;96242.88;5035270;28;20045;-65
2021/09/27 04:38:52;;;;;;;20.83;15.57;;;16.60;85.10;;;15.33;94.68;96235.56;5030111;28;20033;-65
2021/09/27 04:41:58;;;;;;;21.98;16.35;;;16.60;85.40;;;15.32;95.40;96244.53;5012408;28;20036;-65
2021/09/27 04:44:31;;;;;;;20.05;15.52;;;16.60;85.30;;;15.30;94.54;96236.81;5026757;28;20060;-65
2021/09/27 04:47:15;;;;;;;21.42;15.25;;;16.60;85.50;;;15.30;94.56;96238.66;4979810;28;20385;-65
2021/09/27 04:50:05;;;;;;;23.15;16.02;;;16.60;85.40;;;15.28;95.07;96236.22;5028747;28;20045;-65
2021/09/27 04:53:03;;;;;;;20.38;16.13;;;16.60;85.50;;;15.25;95.06;96234.00;5013811;28;20029;-65
2021/09/27 04:55:57;;;;;;;22.10;16.23;;;16.50;85.70;;;15.25;95.78;96244.59;4999297;28;20041;-64
2021/09/27 04:58:33;;;;;;;20.00;16.00;;;16.50;85.70;;;15.22;95.31;96233.63;5012028;28;20033;-65
2021/09/27 05:01:23;;;;;;;19.83;15.35;;;16.50;85.70;;;15.19;95.56;96234.88;5012074;28;20033;-65
2021/09/27 05:04:05;;;;;;;20.60;16.00;;;16.50;85.50;;;15.15;95.55;96236.28;4997964;28;20037;-65
2021/09/27 05:07:28;;;;;;;18.73;15.25;;;16.50;85.30;;;15.13;95.37;96232.25;5012476;28;20064;-65
2021/09/27 05:10:14;;;;;;;19.67;14.38;;;16.40;85.40;;;15.10;94.73;96238.78;4943906;28;20122;-65
2021/09/27 05:13:03;;;;;;;21.77;16.35;;;16.40;85.40;;;15.08;95.56;96234.72;4948591;29;20417;-65
2021/09/27 05:16:09;;;;;;;22.40;18.08;;;16.40;85.80;;;15.07;96.62;96236.56;4983163;28;20048;-65
2021/09/27 05:19:08;;;;;;;22.00;17.65;;;16.30;86.00;;;15.05;96.07;96233.31;5017668;28;20032;-65
2021/09/27 05:22:07;;;;;;;19.58;16.23;;;16.30;85.90;;;15.03;96.34;96238.03;5034422;28;20029;-65
2021/09/27 05:25:21;;;;;;;19.60;15.57;;;16.30;86.10;;;15.04;95.22;96237.00;5024413;28;20104;-65
2021/09/27 05:28:33;;;;;;;21.98;15.43;;;16.40;85.70;;;15.04;96.69;96237.00;5029053;28;20048;-65
2021/09/27 05:31:35;;;;;;;36.78;32.78;;;16.40;85.60;;;15.06;95.42;96240.25;5035162;28;20029;-64
2021/09/27 05:34:26;;;;;;;53.08;43.65;;;16.40;85.30;;;15.05;96.09;96243.91;5049230;28;20029;-65
2021/09/27 05:37:26;;;;;;;22.10;17.00;;;16.40;85.20;;;15.06;94.90;96240.25;5049131;28;20044;-67
2021/09/27 05:40:28;;;;;;;16.95;13.85;;;16.40;85.20;;;15.05;94.87;96238.63;5032011;28;20107;-65
2021/09/27 05:43:13;;;;;;;16.10;13.63;;;16.40;85.00;;;15.04;95.21;96237.00;5048781;28;20071;-65
2021/09/27 05:46:04;;;;;;;16.33;13.35;;;16.40;85.30;;;15.04;96.12;96241.47;5023702;28;20076;-65
2021/09/27 05:48:39;;;;;;;15.75;13.15;;;16.30;85.30;;;15.01;95.56;96246.19;5047791;28;20129;-65
2021/09/27 05:51:14;;;;;;;16.75;13.75;;;16.40;85.10;;;14.98;95.79;96245.81;5007033;28;20025;-65
2021/09/27 05:54:04;;;;;;;17.98;13.35;;;16.20;85.50;;;14.97;95.95;96252.13;4993878;28;20033;-65
2021/09/27 05:57:09;;;;;;;21.15;14.00;;;16.20;85.80;;;14.95;95.42;96249.69;5019873;28;20126;-65
2021/09/27 06:00:10;;;;;;;16.92;12.27;;;16.20;85.80;;;14.96;95.70;96251.31;5036715;28;20488;-64
2021/09/27 06:02:59;;;;;;;15.18;12.25;;;16.30;85.70;;;15.00;96.75;96251.69;5033211;28;20051;-66
2021/09/27 06:05:29;;;;;;;14.45;12.27;;;16.40;85.30;;;15.00;95.54;96252.50;5020511;28;20021;-65
2021/09/27 06:08:25;;;;;;;15.43;12.18;;;16.40;85.20;;;15.08;96.18;96258.56;5010105;28;20029;-65
2021/09/27 06:11:18;;;;;;;15.35;12.68;;;16.60;84.90;;;15.11;95.75;96263.44;4995842;28;20037;-66
2021/09/27 06:13:48;;;;;;;15.75;13.23;;;16.50;85.50;;;15.13;96.15;96266.69;4995530;28;20508;-66
2021/09/27 06:16:44;;;;;;;17.85;13.38;;;16.60;85.30;;;15.19;96.60;96269.31;4979295;28;20036;-65
2021/09/27 06:30:32;;;;;;;15.30;12.80;;;16.60;85.50;;;15.73;93.56;96264.47;5107017;27;20391;-65
2021/09/27 06:33:07;;;;;;;15.00;12.23;;;16.80;84.20;;;15.69;94.63;96258.78;5068954;28;20069;-65
2021/09/27 06:35:35;;;;;;;17.17;12.98;;;16.90;84.60;;;15.65;93.56;96252.28;5082658;28;20027;-66
2021/09/27 06:38:03;;;;;;;13.95;11.27;;;16.80;84.20;;;15.60;93.75;96247.63;5051987;28;20387;-65
2021/09/27 06:40:29;;;;;;;15.82;13.27;;;16.90;84.10;;;15.59;94.56;96255.78;5068504;28;20066;-66
2021/09/27 06:42:55;;;;;;;15.13;12.25;;;16.90;83.90;;;15.62;94.60;96250.06;5038628;28;20057;-66
2021/09/27 06:45:21;;;;;;;14.23;11.48;;;17.10;83.60;;;15.63;94.42;96249.06;5068049;28;20032;-65
2021/09/27 06:47:47;;;;;;;13.23;11.73;;;17.10;83.30;;;15.66;93.45;96250.44;5068477;28;20134;-65
2021/09/27 06:50:13;;;;;;;12.40;10.60;;;17.20;83.30;;;15.70;93.63;96247.13;5064423;28;20028;-66
2021/09/27 06:52:38;;;;;;;14.60;11.40;;;17.30;82.70;;;15.73;93.90;96252.00;5032214;28;20046;-66
2021/09/27 06:55:06;;;;;;;15.52;11.32;;;17.30;82.50;;;15.78;93.17;96249.50;5048257;28;20044;-66
2021/09/27 06:57:32;;;;;;;13.00;10.98;;;17.40;82.50;;;15.85;93.32;96255.59;5048076;28;20033;-66
2021/09/27 06:59:58;;;;;;;11.70;10.18;;;17.50;82.30;;;15.93;93.59;96242.03;5064558;28;20143;-66
2021/09/27 07:02:23;;;;;;;12.75;9.48;;;17.60;82.30;;;16.07;92.79;96253.34;5053313;28;20096;-66
2021/09/27 07:04:51;;;;;;;12.15;10.88;;;17.90;81.20;;;16.13;92.16;96246.34;5067885;28;20025;-66
2021/09/27 07:07:17;;;;;;;15.63;10.70;;;17.80;80.70;;;16.21;91.98;96243.38;5064281;28;20400;-66
2021/09/27 07:09:42;;;;;;;14.10;10.82;;;17.90;81.00;;;16.28;92.21;96249.41;5047663;28;20417;-66
2021/09/27 07:12:10;;;;;;;12.40;10.70;;;18.00;80.90;;;16.32;92.46;96245.31;5031462;28;20060;-65
2021/09/27 07:14:36;;;;;;;11.65;9.63;;;17.90;81.30;;;16.34;92.11;96248.56;5048443;28;20028;-65
2021/09/27 07:17:02;;;;;;;10.77;9.60;;;18.00;81.10;;;16.34;91.21;96245.09;5078283;28;20021;-66
2021/09/27 07:19:28;;;;;;;12.05;9.32;;;18.00;80.70;;;16.38;91.37;96243.63;5032731;28;20652;-65
2021/09/27 07:21:53;;;;;;;11.40;9.38;;;18.10;80.10;;;16.48;91.92;96255.31;5084424;28;20067;-66
2021/09/27 07:24:21;;;;;;;13.60;9.63;;;18.30;80.20;;;16.59;91.38;96251.13;5067496;28;20020;-66
2021/09/27 07:26:46;;;;;;;12.95;9.55;;;18.40;80.10;;;16.69;91.14;96255.94;5068020;28;20016;-66
2021/09/27 07:29:12;;;;;;;12.57;8.90;;;18.60;80.00;;;16.78;91.35;96249.31;5078840;28;20509;-66
2021/09/27 07:31:38;;;;;;;10.82;9.38;;;18.70;79.80;;;16.89;91.06;96253.03;5022247;28;20032;-66
2021/09/27 07:34:05;;;;;;;11.80;9.63;;;18.80;79.40;;;16.96;90.38;96257.22;5054176;28;20130;-66
2021/09/27 07:36:31;;;;;;;11.07;8.93;;;18.90;79.00;;;17.06;90.45;96254.03;5054405;28;20330;-66
2021/09/27 07:38:57;;;;;;;13.02;9.65;;;18.90;78.40;;;17.12;89.90;96250.47;5036355;28;20024;-66
2021/09/27 07:41:25;;;;;;;12.63;9.27;;;19.00;78.00;;;17.20;89.75;96236.03;5070399;28;20035;-66
2021/09/27 07:43:51;;;;;;;9.57;8.25;;;19.00;77.80;;;17.24;89.41;96242.53;5038166;28;20024;-66
2021/09/27 07:46:18;;;;;;;11.98;9.30;;;19.00;77.70;;;17.27;88.84;96234.91;5037326;28;20481;-66
2021/09/27 07:48:45;;;;;;;10.52;9.40;;;19.00;78.40;;;17.33;88.75;96241.97;5053125;28;20021;-66
2021/09/27 07:51:11;;;;;;;10.80;9.05;;;19.20;78.00;;;17.47;88.74;96233.81;5020727;28;20489;-66
2021/09/27 07:53:37;;;;;;;13.73;8.65;;;19.90;76.20;;;17.67;88.37;96231.63;5037154;28;20094;-65
2021/09/27 07:56:02;;;;;;;11.18;8.45;;;20.30;74.70;;;17.90;88.29;96225.56;5053101;28;20060;-66
2021/09/27 07:58:28;;;;;;;9.95;8.50;;;20.70;74.20;;;18.15;87.87;96228.78;5053855;28;20459;-66
2021/09/27 08:00:54;;;;;;;10.15;8.25;;;21.10;72.00;;;18.41;87.67;96223.97;5036895;28;20025;-66
2021/09/27 08:03:20;;;;;;;13.07;7.72;;;21.50;69.30;;;18.64;85.38;96223.94;5070031;28;20025;-66
2021/09/27 08:05:46;;;;;;;10.35;8.10;;;21.70;67.90;;;18.90;85.05;96228.72;5049428;28;20451;-66
2021/09/27 08:08:11;;;;;;;8.50;7.53;;;22.10;67.20;;;19.16;83.44;96226.53;5033399;28;20095;-66
2021/09/27 08:10:38;;;;;;;9.52;7.78;;;22.20;65.50;;;19.37;82.68;96228.50;5049818;28;20064;-66
2021/09/27 08:13:04;;;;;;;9.18;7.10;;;22.30;65.50;;;19.60;82.69;96229.44;5050284;28;20052;-66
2021/09/27 08:15:33;;;;;;;8.35;6.57;;;22.80;64.80;;;19.84;81.33;96229.00;5018154;28;20110;-66
2021/09/27 08:18:00;;;;;;;8.15;6.05;;;23.10;64.20;;;20.08;80.03;96226.97;5036766;28;20472;-66
2021/09/27 08:20:37;;;;;;;12.10;6.88;;;23.10;60.60;;;20.29;76.98;96232.59;5036813;28;20078;-67
2021/09/27 08:23:02;;;;;;;7.43;6.47;;;23.30;60.00;;;20.41;77.33;96225.31;5022625;28;20075;-66
2021/09/27 08:25:29;;;;;;;7.50;6.68;;;23.00;60.80;;;20.62;76.84;96224.50;5068224;28;20067;-67
2021/09/27 08:27:55;;;;;;;8.50;6.30;;;23.60;60.60;;;20.86;75.80;96233.06;5017321;28;20033;-67
2021/09/27 08:30:29;;;;;;;7.38;6.30;;;23.90;58.30;;;21.12;74.23;96231.47;5021579;28;20158;-67
2021/09/27 08:32:55;;;;;;;7.38;6.13;;;24.10;58.60;;;21.28;74.40;96235.97;5018252;28;20037;-67
2021/09/27 08:35:21;;;;;;;8.00;6.35;;;24.20;57.70;;;21.43;73.91;96231.78;5049856;28;20054;-67
2021/09/27 08:37:47;;;;;;;8.63;6.60;;;24.30;58.50;;;21.60;72.30;96235.16;5052644;28;20060;-67
2021/09/27 08:40:58;;;;;;;8.07;6.57;;;24.40;56.20;;;21.73;69.14;96231.22;5035917;28;20029;-67
2021/09/27 08:43:32;;;;;;;8.80;6.60;;;24.40;57.50;;;21.81;69.90;96234.25;5089631;28;20488;-67
2021/09/27 08:46:05;;;;;;;7.20;6.45;;;24.50;57.20;;;22.03;70.84;96231.47;5085261;28;20032;-67
2021/09/27 08:49:05;;;;;;;7.15;6.13;;;25.00;56.40;;;22.29;69.06;96232.47;5021022;28;20099;-67
2021/09/27 08:51:32;;;;;;;7.27;6.20;;;25.30;55.30;;;22.49;70.05;96224.53;5060898;28;20040;-68
2021/09/27 08:53:57;;;;;;;7.43;6.03;;;25.60;52.80;;;22.75;70.14;96221.94;5034273;28;20056;-66
2021/09/27 08:56:32;;;;;;;7.60;6.13;;;26.00;54.00;;;23.05;65.93;96227.44;5032703;28;20497;-67
2021/09/27 08:59:27;;;;;;;6.93;6.22;;;26.30;51.80;;;23.29;65.08;96222.38;5048725;28;20489;-67
2021/09/27 09:02:19;;;;;;;7.30;6.18;;;26.30;52.30;;;23.57;64.57;96226.47;5049185;28;20107;-67
2021/09/27 09:05:07;;;;;;;7.90;6.00;;;26.70;51.30;;;23.89;65.38;96223.50;5052633;28;20496;-67
2021/09/27 09:07:32;;;;;;;7.78;5.97;;;27.10;49.80;;;24.21;65.90;96223.19;5054864;28;20033;-67
2021/09/27 09:10:05;;;;;;;7.30;6.10;;;27.40;49.50;;;24.51;62.32;96219.66;5019022;28;20114;-67
2021/09/27 09:12:40;;;;;;;12.38;6.72;;;27.60;49.40;;;24.80;60.87;96217.09;5036201;28;20075;-67
2021/09/27 09:15:19;;;;;;;8.48;6.28;;;28.00;48.30;;;25.06;60.04;96220.50;5052011;28;20485;-67
2021/09/27 09:17:51;;;;;;;8.93;7.40;;;28.20;46.80;;;25.28;59.76;96214.72;5033245;28;20025;-67
2021/09/27 09:20:23;;;;;;;7.82;6.85;;;28.10;46.50;;;25.27;59.61;96215.81;5048260;28;20066;-67
2021/09/27 09:22:49;;;;;;;11.65;6.60;;;28.00;48.10;;;25.42;61.54;96218.41;5064989;28;20044;-67
2021/09/27 09:25:27;;;;;;;8.98;6.63;;;28.60;46.30;;;25.75;57.28;96216.81;5048615;28;20405;-67
2021/09/27 09:27:54;;;;;;;6.97;5.93;;;29.10;45.30;;;26.06;60.20;96209.28;5045435;28;20028;-67
2021/09/27 09:30:23;;;;;;;7.15;6.20;;;30.00;43.80;;;26.37;57.91;96203.59;5035261;28;20028;-66
2021/09/27 09:32:52;;;;;;;8.88;6.97;;;30.50;42.80;;;26.68;56.47;96209.41;5035981;28;20453;-65
2021/09/27 09:35:29;;;;;;;7.03;6.33;;;30.90;40.70;;;26.97;53.39;96206.66;5023557;28;20033;-66
2021/09/27 09:38:07;;;;;;;8.40;6.47;;;31.60;39.50;;;27.31;53.45;96201.84;5032136;28;20271;-66
2021/09/27 09:40:40;;;;;;;8.25;5.80;;;32.20;38.70;;;27.50;54.24;96209.16;5038427;28;20035;-66
2021/09/27 09:43:10;;;;;;;8.35;5.78;;;32.50;38.80;;;27.73;56.60;96192.84;5088646;28;20036;-66
2021/09/27 09:45:41;;;;;;;7.93;6.22;;;33.10;37.30;;;27.87;51.79;96195.59;5038711;28;20165;-66
2021/09/27 09:48:24;;;;;;;7.68;5.35;;;33.00;36.70;;;28.27;50.64;96187.84;5035162;28;20508;-66
2021/09/27 09:50:53;;;;;;;9.20;6.22;;;34.10;35.40;;;28.80;53.14;96198.19;5068173;28;20028;-65
2021/09/27 09:53:21;;;;;;;8.10;6.07;;;35.00;33.50;;;29.40;54.13;96201.47;5051691;28;20109;-66
2021/09/27 09:55:56;;;;;;;6.35;5.53;;;36.20;32.30;;;30.15;47.98;96194.56;5036975;28;20035;-66
2021/09/27 09:58:41;;;;;;;5.93;5.10;;;37.60;30.00;;;30.97;44.71;96193.88;5048434;28;20057;-67
2021/09/27 10:01:33;;;;;;;5.95;5.32;;;38.50;27.50;;;31.64;41.95;96193.47;5048225;28;20033;-67
2021/09/27 10:04:11;;;;;;;6.00;5.40;;;39.40;27.40;;;32.27;42.43;96191.94;5048757;28;20078;-67
2021/09/27 10:06:44;;;;;;;5.72;4.68;;;40.00;26.20;;;32.81;47.63;96194.91;5032454;28;20029;-67
2021/09/27 10:09:31;;;;;;;6.78;5.13;;;40.80;25.50;;;33.34;40.48;96189.97;5047473;28;20565;-67
2021/09/27 10:12:07;;;;;;;5.32;4.40;;;41.20;24.60;;;33.17;38.88;96191.66;5041341;28;20033;-67
2021/09/27 10:14:37;;;;;;;7.20;4.38;;;37.80;27.60;;;33.33;40.29;96194.63;5049553;28;20037;-67
2021/09/27 10:17:34;;;;;;;4.97;4.47;;;39.90;25.90;;;33.58;38.41;96190.06;5067992;28;20025;-67
2021/09/27 10:20:19;;;;;;;7.78;4.30;;;40.80;25.10;;;33.56;37.92;96188.81;5048695;28;20041;-67
2021/09/27 10:22:53;;;;;;;5.88;4.80;;;38.70;26.40;;;32.91;37.86;96182.06;5047530;28;20056;-67
2021/09/27 10:25:47;;;;;;;5.68;4.47;;;35.90;30.00;;;32.15;38.64;96188.28;5047974;28;20029;-66
2021/09/27 10:28:18;;;;;;;5.13;4.63;;;34.00;32.70;;;31.09;39.08;96185.91;5033292;28;20029;-66
2021/09/27 10:30:57;;;;;;;6.13;4.90;;;32.10;34.40;;;31.03;38.77;96192.63;5047654;28;20100;-66
2021/09/27 10:33:35;;;;;;;5.70;4.57;;;35.90;29.70;;;31.48;38.28;96181.50;5036350;28;20497;-66
2021/09/27 10:36:09;;;;;;;5.45;4.30;;;37.50;27.30;;;32.05;40.56;96178.53;5064440;28;20418;-66
2021/09/27 10:38:52;;;;;;;4.75;4.15;;;39.10;26.30;;;32.78;37.08;96178.41;5064484;28;20029;-66
2021/09/27 10:41:29;;;;;;;4.72;4.05;;;40.30;25.20;;;33.34;36.57;96179.84;5056984;28;20477;-66
2021/09/27 10:43:57;;;;;;;6.00;4.60;;;40.50;24.40;;;33.49;36.88;96173.78;5051128;28;20086;-66
2021/09/27 10:46:34;;;;;;;4.30;3.65;;;38.90;26.10;;;32.99;35.60;96167.56;5034528;28;20043;-67
2021/09/27 10:49:00;;;;;;;6.00;4.35;;;36.60;27.70;;;32.43;38.14;96170.44;5035844;28;20031;-66
2021/09/27 10:51:30;;;;;;;5.63;4.35;;;35.00;30.30;;;31.80;37.15;96172.03;5034551;28;20029;-66
2021/09/27 10:54:28;;;;;;;5.05;4.40;;;33.50;31.60;;;31.16;37.04;96184.63;5031002;28;20029;-66
2021/09/27 10:56:55;;;;;;;5.32;4.28;;;33.10;32.90;;;30.73;39.06;96182.66;5031257;28;20135;-66
2021/09/27 10:59:34;;;;;;;4.82;4.38;;;32.70;34.20;;;30.12;38.54;96187.84;5030939;28;20037;-66
2021/09/27 11:02:16;;;;;;;4.97;4.50;;;31.50;35.60;;;29.47;40.05;96187.56;5048585;28;20132;-66
2021/09/27 11:04:44;;;;;;;5.13;4.40;;;30.50;37.90;;;28.90;41.45;96185.25;5033640;28;20170;-66
2021/09/27 11:07:35;;;;;;;5.82;4.85;;;30.40;38.90;;;28.72;42.27;96188.84;5018442;28;20462;-66
2021/09/27 11:10:01;;;;;;;6.15;4.40;;;31.00;37.80;;;29.01;42.02;96185.84;5034331;28;20033;-66
2021/09/27 11:12:43;;;;;;;5.45;4.13;;;33.50;35.00;;;29.62;41.66;96189.88;5034966;28;20029;-67
2021/09/27 11:15:26;;;;;;;5.25;4.75;;;34.70;32.30;;;29.72;40.96;96186.94;5065638;28;20350;-66
2021/09/27 11:18:17;;;;;;;4.95;4.45;;;33.00;34.30;;;29.49;41.44;96183.41;5067861;28;20024;-66
2021/09/27 11:20:48;;;;;;;5.85;4.70;;;32.20;35.90;;;29.75;41.10;96180.88;5034256;28;20071;-67
2021/09/27 11:23:35;;;;;;;6.20;4.75;;;33.00;34.30;;;30.25;40.36;96177.97;5051998;28;20025;-67
2021/09/27 11:26:27;;;;;;;4.93;4.28;;;35.20;31.80;;;31.25;38.28;96171.91;5051036;28;20025;-66
2021/09/27 11:29:29;;;;;;;5.10;4.18;;;36.90;28.10;;;32.57;36.77;96170.19;5052753;28;20138;-66
2021/09/27 11:32:33;;;;;;;6.45;4.05;;;38.50;26.40;;;33.77;34.68;96167.75;5037929;28;20029;-67
2021/09/27 11:35:50;;;;;;;6.53;4.13;;;40.20;24.60;;;34.99;34.25;96159.72;5064193;28;20032;-67
2021/09/27 11:38:26;;;;;;;4.00;3.70;;;40.90;23.90;;;35.55;32.63;96157.09;5016102;28;20041;-67
2021/09/27 11:40:55;;;;;;;4.90;4.40;;;40.60;23.30;;;36.00;34.22;96156.00;5050568;28;20021;-67
2021/09/27 11:43:45;;;;;;;4.53;3.90;;;40.00;23.60;;;36.55;31.22;96155.03;5034417;28;20401;-67
2021/09/27 11:46:39;;;;;;;4.28;3.88;;;40.80;23.80;;;36.91;29.28;96137.53;5050458;28;20063;-67
2021/09/27 11:52:35;;;;;;;5.75;4.00;;;41.10;23.90;;;38.01;28.33;96149.94;5052106;28;20025;-68
2021/09/27 11:55:11;;;;;;;4.75;3.88;;;41.50;22.70;;;38.44;27.31;96142.47;5050613;28;20124;-67
2021/09/27 11:58:16;;;;;;;4.90;4.05;;;41.80;21.70;;;38.83;26.70;96143.09;5060936;28;20119;-67
2021/09/27 12:00:58;;;;;;;4.65;3.63;;;42.00;21.20;;;39.21;26.78;96139.34;5054582;28;20037;-67
2021/09/27 12:04:05;;;;;;;4.63;3.63;;;41.90;21.90;;;39.73;25.17;96124.63;5023430;28;20437;-67
2021/09/27 12:06:35;;;;;;;4.30;3.58;;;41.90;21.50;;;40.02;26.62;96134.00;5037417;28;20036;-67
2021/09/27 12:09:11;;;;;;;4.13;3.35;;;41.70;21.80;;;40.06;24.75;96128.53;5053523;28;20056;-68
2021/09/27 12:11:50;;;;;;;6.47;3.50;;;41.80;21.40;;;40.41;25.38;96122.56;5054437;28;20464;-67
2021/09/27 12:14:19;;;;;;;3.40;3.10;;;42.40;22.30;;;40.66;26.02;96123.53;5070382;28;20475;-67
2021/09/27 12:16:47;;;;;;;;;;;42.30;21.90;;;40.60;24.46;96125.09;5035621;28;20045;-67
2021/09/27 12:19:18;;;;;;;;;;;42.40;21.10;;;40.31;24.51;96134.28;5042315;28;19913;-67
2021/09/27 12:21:52;;;;;;;4.10;3.70;;;41.50;22.40;;;40.52;25.43;96139.22;5049773;28;20499;-67
2021/09/27 12:24:23;;;;;;;5.32;3.67;;;41.70;21.90;;;40.15;25.25;96131.78;5034094;28;20056;-67
2021/09/27 12:27:11;;;;;;;4.60;3.75;;;41.10;23.10;;;39.38;26.01;96138.78;5035978;28;20674;-67
2021/09/27 12:29:57;;;;;;;5.32;3.55;;;39.50;24.30;;;38.05;26.53;96148.09;5056253;28;20112;-67
2021/09/27 12:32:53;;;;;;;3.97;3.58;;;38.30;25.70;;;37.13;27.52;96148.94;5070627;28;20079;-67
2021/09/27 12:35:23;;;;;;;4.00;3.60;;;37.40;27.20;;;37.12;27.86;96145.41;5056620;28;20043;-66
2021/09/27 12:37:52;;;;;;;4.40;3.50;;;38.10;26.30;;;37.57;28.44;96133.84;5053546;28;20032;-67
2021/09/27 12:40:18;;;;;;;3.67;3.20;;;38.90;26.00;;;37.80;28.79;96144.06;5051042;28;20515;-67
2021/09/27 12:43:00;;;;;;;3.78;3.47;;;38.80;26.10;;;37.91;28.09;96139.56;5057140;28;20585;-66
2021/09/27 12:45:42;;;;;;;4.10;3.70;;;39.20;26.40;;;38.30;26.73;96135.59;5059486;28;20111;-66
2021/09/27 12:48:37;;;;;;;4.50;3.60;;;39.60;24.50;;;38.55;26.31;96136.00;5075916;28;20120;-66
2021/09/27 12:51:10;;;;;;;6.22;3.55;;;39.70;24.70;;;38.06;26.63;96135.94;5048578;28;20124;-66
2021/09/27 12:54:03;;;;;;;3.63;3.22;;;38.50;25.80;;;36.91;27.45;96126.56;5049697;28;20060;-66
2021/09/27 12:56:30;;;;;;;5.32;3.58;;;36.90;27.00;;;35.90;28.73;96133.44;5066541;28;20035;-66
2021/09/27 12:59:15;;;;;;;4.18;3.78;;;35.80;29.20;;;35.70;28.97;96131.69;5066208;28;20440;-67
2021/09/27 13:02:04;;;;;;;3.53;3.22;;;36.20;28.70;;;36.05;27.33;96125.59;5066355;28;20037;-66
2021/09/27 13:04:31;;;;;;;3.90;3.35;;;35.70;27.60;;;35.83;28.40;96129.72;5054481;28;20132;-66
2021/09/27 13:07:04;;;;;;;4.25;3.40;;;35.50;29.10;;;35.95;28.25;96128.84;5070713;28;20424;-67
2021/09/27 13:09:38;;;;;;;3.58;3.28;;;36.10;29.10;;;36.23;28.33;96121.38;5052874;28;20058;-66
2021/09/27 13:12:33;;;;;;;3.90;3.30;;;36.50;27.90;;;36.56;26.89;96125.69;5038402;28;20040;-66
2021/09/27 13:15:05;;;;;;;5.00;3.17;;;36.80;26.70;;;36.29;27.89;96125.44;5065965;28;20077;-66
2021/09/27 13:17:31;;;;;;;3.70;3.20;;;35.70;28.50;;;35.58;28.59;96123.56;5049507;28;20440;-66
2021/09/27 13:19:59;;;;;;;3.78;3.13;;;35.00;28.70;;;34.83;29.32;96135.00;5044026;28;20021;-66
2021/09/27 13:22:38;;;;;;;4.20;3.70;;;34.40;30.60;;;34.67;30.49;96131.41;5049134;28;20033;-66
2021/09/27 13:25:25;;;;;;;;;;;35.00;31.20;;;34.60;31.41;96118.28;5043603;28;20116;-66
2021/09/27 13:28:02;;;;;;;5.25;3.97;;;35.20;32.00;;;34.29;31.63;96120.78;5032065;28;20328;-66